createdAt,value
2023-02-03T00:00:42.240Z,14.73
2023-02-03T00:03:12.250Z,13.48
2023-02-03T00:05:39.620Z,14.05
2023-02-03T00:08:08.704Z,13.32
2023-02-03T00:10:37.136Z,13.70
2023-02-03T00:13:03.615Z,13.95
2023-02-03T00:15:30.261Z,14.02
2023-02-03T00:17:56.755Z,13.68
2023-02-03T00:20:25.989Z,12.98
2023-02-03T00:22:52.880Z,13.77
2023-02-03T00:25:23.795Z,12.60
2023-02-03T00:27:57.940Z,13.15
2023-02-03T00:30:29.346Z,13.10
2023-02-03T00:32:58.479Z,13.25
2023-02-03T00:35:24.914Z,12.57
2023-02-03T00:37:56.259Z,12.15
2023-02-03T00:40:25.508Z,13.30
2023-02-03T00:42:52.810Z,13.63
2023-02-03T00:45:21.759Z,12.18
2023-02-03T00:47:48.567Z,11.45
2023-02-03T00:50:15.162Z,12.40
2023-02-03T00:52:47.450Z,10.88
2023-02-03T00:55:14.114Z,11.02
2023-02-03T00:57:40.694Z,11.43
2023-02-03T01:00:07.952Z,11.02
2023-02-03T01:02:35.719Z,11.57
2023-02-03T01:05:02.371Z,11.38
2023-02-03T01:07:32.187Z,10.48
2023-02-03T01:09:58.713Z,9.85
2023-02-03T01:12:25.271Z,10.70
2023-02-03T01:14:51.834Z,10.38
2023-02-03T01:17:18.471Z,10.80
2023-02-03T01:19:47.957Z,9.73
2023-02-03T01:22:14.543Z,9.52
2023-02-03T01:24:41.117Z,9.38
2023-02-03T01:27:07.697Z,10.07
2023-02-03T01:29:36.758Z,8.65
2023-02-03T01:32:03.635Z,8.90
2023-02-03T01:34:30.326Z,8.10
2023-02-03T01:36:56.848Z,9.15
2023-02-03T01:39:23.371Z,9.60
2023-02-03T01:41:49.850Z,9.05
2023-02-03T01:44:52.132Z,9.40
2023-02-03T01:47:39.525Z,8.32
2023-02-03T01:50:12.664Z,9.68
2023-02-03T01:52:42.171Z,9.77
2023-02-03T01:55:12.878Z,10.18
2023-02-03T01:58:02.915Z,10.35
2023-02-03T02:00:31.026Z,10.52
2023-02-03T02:03:00.808Z,9.50
2023-02-03T02:06:00.180Z,9.35
2023-02-03T02:08:27.203Z,9.38
2023-02-03T02:10:54.266Z,9.00
2023-02-03T02:13:20.984Z,9.60
2023-02-03T02:16:00.016Z,9.43
2023-02-03T02:19:01.884Z,9.35
2023-02-03T02:21:47.539Z,10.27
2023-02-03T02:24:45.005Z,8.70
2023-02-03T02:27:33.701Z,9.57
2023-02-03T02:30:33.606Z,9.85
2023-02-03T02:33:08.646Z,8.63
2023-02-03T02:35:46.530Z,9.80
2023-02-03T02:38:35.006Z,8.73
2023-02-03T02:41:10.425Z,8.95
2023-02-03T02:43:54.399Z,8.73
2023-02-03T02:46:32.940Z,8.27
2023-02-03T02:49:14.237Z,8.25
2023-02-03T02:51:45.161Z,8.52
2023-02-03T02:54:20.858Z,8.80
2023-02-03T02:56:56.279Z,8.60
2023-02-03T02:59:24.980Z,8.02
2023-02-03T03:01:57.555Z,8.13
2023-02-03T03:04:29.437Z,8.43
2023-02-03T03:07:07.277Z,8.38
2023-02-03T03:09:39.961Z,8.68
2023-02-03T03:12:17.627Z,8.35
2023-02-03T03:14:55.962Z,8.95
2023-02-03T03:17:33.535Z,7.85
2023-02-03T03:20:55.533Z,8.15
2023-02-03T03:23:17.556Z,8.10
2023-02-03T03:25:48.736Z,7.75
2023-02-03T03:28:26.678Z,7.43
2023-02-03T03:30:53.834Z,7.15
2023-02-03T03:33:23.945Z,8.23
2023-02-03T03:36:13.689Z,7.32
2023-02-03T03:38:48.597Z,7.38
2023-02-03T03:41:42.042Z,7.68
2023-02-03T03:46:51.526Z,6.90
2023-02-03T03:49:21.381Z,6.18
2023-02-03T03:51:58.855Z,6.05
2023-02-03T03:54:28.974Z,6.40
2023-02-03T03:57:03.052Z,6.00
2023-02-03T03:59:43.374Z,6.15
2023-02-03T04:02:12.244Z,5.63
2023-02-03T04:04:39.842Z,6.00
2023-02-03T04:07:06.420Z,5.18
2023-02-03T04:09:36.472Z,5.15
2023-02-03T04:12:05.984Z,4.93
2023-02-03T04:14:37.845Z,4.95
2023-02-03T04:17:04.751Z,5.25
2023-02-03T04:19:31.196Z,5.07
2023-02-03T04:21:57.726Z,4.93
2023-02-03T04:24:24.277Z,5.13
2023-02-03T04:26:50.833Z,5.10
2023-02-03T04:29:19.548Z,5.20
2023-02-03T04:31:46.269Z,4.95
2023-02-03T04:34:12.760Z,4.50
2023-02-03T04:36:39.198Z,4.78
2023-02-03T04:39:05.826Z,4.95
2023-02-03T04:41:32.512Z,4.00
2023-02-03T04:43:59.074Z,4.65
2023-02-03T04:46:25.518Z,4.32
2023-02-03T04:48:52.014Z,4.70
2023-02-03T04:51:20.556Z,4.32
2023-02-03T04:53:47.092Z,4.30
2023-02-03T04:58:42.699Z,3.85
2023-02-03T05:01:09.421Z,4.32
2023-02-03T05:03:36.373Z,3.50
2023-02-03T05:06:03.337Z,3.17
2023-02-03T05:08:30.717Z,3.63
2023-02-03T05:10:59.171Z,4.30
2023-02-03T05:13:27.318Z,4.05
2023-02-03T05:15:53.695Z,4.50
2023-02-03T05:18:20.081Z,3.22
2023-02-03T05:20:46.519Z,3.75
2023-02-03T05:23:12.884Z,3.85
2023-02-03T05:25:39.283Z,3.90
2023-02-03T05:28:05.688Z,4.32
2023-02-03T05:30:33.149Z,4.82
2023-02-03T05:32:59.492Z,4.40
2023-02-03T05:35:26.081Z,4.30
2023-02-03T05:37:52.507Z,4.20
2023-02-03T05:40:37.275Z,4.57
2023-02-03T05:43:03.641Z,4.55
2023-02-03T05:45:30.053Z,4.82
2023-02-03T05:47:57.044Z,4.70
2023-02-03T05:50:23.546Z,5.20
2023-02-03T05:52:50.021Z,4.60
2023-02-03T05:55:16.584Z,4.50
2023-02-03T05:57:43.034Z,4.97
2023-02-03T06:00:10.080Z,5.45
2023-02-03T06:02:36.489Z,4.57
2023-02-03T06:05:02.958Z,4.75
2023-02-03T06:07:29.342Z,5.15
2023-02-03T06:09:55.740Z,4.70
2023-02-03T06:12:22.198Z,4.85
2023-02-03T06:14:48.594Z,4.40
2023-02-03T06:17:14.942Z,5.13
2023-02-03T06:19:41.310Z,4.90
2023-02-03T06:22:07.680Z,5.20
2023-02-03T06:24:34.104Z,5.20
2023-02-03T06:27:00.555Z,4.90
2023-02-03T06:29:26.930Z,4.70
2023-02-03T06:31:53.452Z,4.65
2023-02-03T06:34:19.909Z,4.28
2023-02-03T06:36:47.199Z,5.00
2023-02-03T06:39:13.755Z,4.65
2023-02-03T06:41:40.168Z,4.40
2023-02-03T06:44:06.692Z,5.13
2023-02-03T06:46:33.810Z,4.70
2023-02-03T06:49:00.311Z,3.95
2023-02-03T06:51:26.758Z,4.00
2023-02-03T06:53:53.228Z,4.60
2023-02-03T06:56:19.580Z,3.88
2023-02-03T06:58:45.979Z,4.22
2023-02-03T07:01:12.402Z,4.15
2023-02-03T07:03:38.856Z,4.07
2023-02-03T07:06:05.549Z,4.22
2023-02-03T07:08:31.911Z,3.65
2023-02-03T07:10:58.244Z,3.75
2023-02-03T07:13:24.628Z,3.30
2023-02-03T07:15:51.105Z,3.67
2023-02-03T07:18:43.484Z,3.55
2023-02-03T07:21:07.028Z,3.13
2023-02-03T07:23:33.577Z,3.60
2023-02-03T07:26:00.938Z,3.40
2023-02-03T07:28:27.289Z,3.55
2023-02-03T07:30:53.684Z,3.65
2023-02-03T07:33:20.490Z,3.78
2023-02-03T07:35:53.870Z,3.30
2023-02-03T07:38:20.339Z,3.40
2023-02-03T07:40:46.767Z,3.90
2023-02-03T07:43:13.441Z,3.83
2023-02-03T07:45:39.881Z,3.40
2023-02-03T07:48:06.292Z,3.78
2023-02-03T07:50:33.377Z,3.45
2023-02-03T07:53:00.605Z,3.25
2023-02-03T07:55:27.109Z,3.05
2023-02-03T07:57:54.779Z,3.38
2023-02-03T08:00:21.639Z,3.50
2023-02-03T08:02:48.115Z,3.45
2023-02-03T08:05:14.931Z,3.75
2023-02-03T08:07:42.191Z,2.78
2023-02-03T08:10:10.951Z,3.22
2023-02-03T08:12:37.896Z,3.40
2023-02-03T08:15:04.998Z,2.92
2023-02-03T08:17:31.334Z,3.33
2023-02-03T08:19:57.646Z,3.67
2023-02-03T08:22:23.942Z,3.13
2023-02-03T08:24:50.312Z,3.63
2023-02-03T08:27:18.862Z,3.20
2023-02-03T08:29:46.125Z,2.90
2023-02-03T08:32:14.972Z,3.10
2023-02-03T08:34:41.711Z,3.15
2023-02-03T08:37:08.411Z,3.13
2023-02-03T08:39:35.300Z,3.33
2023-02-03T08:42:03.839Z,3.55
2023-02-03T08:44:31.417Z,3.45
2023-02-03T08:46:58.979Z,2.80
2023-02-03T08:49:27.328Z,3.35
2023-02-03T08:51:54.582Z,3.15
2023-02-03T08:54:21.955Z,3.05
2023-02-03T08:56:48.583Z,2.78
2023-02-03T08:59:15.443Z,3.50
2023-02-03T09:01:45.073Z,3.58
2023-02-03T09:04:12.730Z,3.08
2023-02-03T09:06:39.643Z,3.17
2023-02-03T09:09:05.978Z,3.08
2023-02-03T09:11:32.398Z,2.90
2023-02-03T09:13:58.793Z,3.65
2023-02-03T09:16:25.572Z,2.90
2023-02-03T09:18:51.952Z,2.78
2023-02-03T09:21:36.303Z,2.78
2023-02-03T09:24:05.239Z,2.90
2023-02-03T09:26:31.686Z,3.47
2023-02-03T09:28:58.104Z,3.13
2023-02-03T09:31:24.676Z,2.92
2023-02-03T09:33:51.241Z,2.80
2023-02-03T09:36:17.570Z,3.00
2023-02-03T09:38:43.932Z,3.20
2023-02-03T09:41:11.930Z,3.17
2023-02-03T09:44:04.748Z,3.10
2023-02-03T09:46:40.256Z,2.70
2023-02-03T09:49:13.178Z,3.20
2023-02-03T09:51:49.298Z,2.60
2023-02-03T09:54:55.354Z,3.20
2023-02-03T09:57:24.961Z,2.60
2023-02-03T09:59:53.406Z,3.20
2023-02-03T10:02:34.002Z,2.50
2023-02-03T10:05:08.021Z,2.92
2023-02-03T10:07:58.286Z,2.90
2023-02-03T10:10:38.657Z,2.58
2023-02-03T10:13:38.036Z,2.80
2023-02-03T10:16:18.593Z,2.25
2023-02-03T10:18:53.407Z,3.00
2023-02-03T10:21:35.899Z,3.95
2023-02-03T10:24:06.324Z,2.97
2023-02-03T10:26:32.755Z,2.88
2023-02-03T10:29:16.091Z,2.67
2023-02-03T10:34:12.401Z,2.50
2023-02-03T10:36:58.509Z,3.00
2023-02-03T10:39:44.896Z,2.60
2023-02-03T10:42:13.137Z,2.33
2023-02-03T10:44:48.318Z,2.78
2023-02-03T10:47:23.939Z,3.15
2023-02-03T10:49:55.773Z,3.10
2023-02-03T10:52:32.429Z,2.55
2023-02-03T10:55:02.312Z,2.60
2023-02-03T10:57:31.789Z,2.95
2023-02-03T11:00:24.379Z,3.13
2023-02-03T11:03:03.692Z,3.20
2023-02-03T11:05:30.359Z,2.83
2023-02-03T11:07:57.152Z,2.90
2023-02-03T11:10:40.821Z,3.25
2023-02-03T11:13:26.341Z,2.75
2023-02-03T11:16:15.915Z,3.40
2023-02-03T11:18:59.743Z,3.35
2023-02-03T11:21:38.218Z,2.92
2023-02-03T11:24:26.888Z,3.60
2023-02-03T11:27:04.805Z,3.33
2023-02-03T11:29:41.970Z,2.97
2023-02-03T11:32:34.603Z,3.10
2023-02-03T11:35:05.299Z,3.13
2023-02-03T11:37:40.582Z,3.55
2023-02-03T11:40:07.119Z,3.45
2023-02-03T11:42:48.998Z,3.20
2023-02-03T11:45:36.357Z,3.53
2023-02-03T11:48:13.238Z,3.45
2023-02-03T11:50:48.226Z,3.17
2023-02-03T11:53:32.724Z,3.72
2023-02-03T11:56:16.344Z,3.70
2023-02-03T11:59:07.670Z,3.65
2023-02-03T12:02:11.632Z,3.90
2023-02-03T12:04:50.117Z,3.85
2023-02-03T12:07:54.970Z,4.05
2023-02-03T12:10:45.551Z,5.15
2023-02-03T12:13:25.143Z,4.47
2023-02-03T12:15:51.500Z,4.50
2023-02-03T12:18:32.037Z,4.47
2023-02-03T12:21:35.488Z,5.07
2023-02-03T12:24:14.915Z,4.47
2023-02-03T12:26:54.453Z,5.60
2023-02-03T12:29:31.679Z,5.13
2023-02-03T12:32:25.498Z,4.75
2023-02-03T12:35:12.787Z,4.63
2023-02-03T12:38:07.497Z,4.32
2023-02-03T12:40:42.197Z,4.22
2023-02-03T12:43:33.178Z,4.68
2023-02-03T12:46:04.657Z,5.47
2023-02-03T12:48:47.422Z,4.57
2023-02-03T12:51:24.143Z,4.68
2023-02-03T12:53:57.854Z,4.57
2023-02-03T12:56:34.900Z,4.35
2023-02-03T12:59:06.993Z,4.80
2023-02-03T13:01:59.368Z,4.50
2023-02-03T13:04:28.735Z,3.88
2023-02-03T13:07:13.833Z,4.93
2023-02-03T13:09:52.030Z,4.30
2023-02-03T13:12:41.148Z,5.40
2023-02-03T13:15:26.295Z,4.25
2023-02-03T13:18:15.471Z,3.78
2023-02-03T13:20:42.064Z,4.03
2023-02-03T13:23:14.157Z,4.68
2023-02-03T13:26:10.998Z,3.90
2023-02-03T13:29:31.423Z,4.13
2023-02-03T13:32:03.516Z,4.63
2023-02-03T13:34:37.519Z,4.03
2023-02-03T13:37:33.189Z,5.00
2023-02-03T13:40:18.105Z,5.07
2023-02-03T13:42:48.239Z,4.65
2023-02-03T13:45:40.465Z,5.13
2023-02-03T13:48:25.447Z,4.53
2023-02-03T13:51:03.578Z,4.28
2023-02-03T13:53:35.938Z,4.88
2023-02-03T13:56:04.663Z,4.28
2023-02-03T13:58:37.043Z,4.72
2023-02-03T14:01:27.665Z,4.28
2023-02-03T14:03:54.445Z,3.85
2023-02-03T14:06:39.239Z,4.50
2023-02-03T14:09:22.692Z,3.83
2023-02-03T14:11:51.892Z,4.35
2023-02-03T14:14:20.653Z,4.22
2023-02-03T14:16:49.256Z,4.60
2023-02-03T14:19:21.771Z,5.18
2023-02-03T14:22:20.644Z,4.68
2023-02-03T14:24:48.740Z,4.20
2023-02-03T14:27:22.540Z,4.32
2023-02-03T14:30:12.411Z,5.40
2023-02-03T14:32:59.494Z,4.00
2023-02-03T14:35:34.774Z,4.05
2023-02-03T14:38:04.327Z,4.95
2023-02-03T14:40:39.921Z,3.78
2023-02-03T14:43:21.209Z,4.38
2023-02-03T14:46:09.290Z,3.88
2023-02-03T14:49:00.257Z,4.30
2023-02-03T14:52:08.650Z,3.90
2023-02-03T14:54:59.848Z,4.07
2023-02-03T14:57:38.502Z,4.22
2023-02-03T15:00:11.555Z,4.32
2023-02-03T15:05:27.618Z,3.75
2023-02-03T15:07:54.194Z,4.97
2023-02-03T15:10:20.517Z,4.10
2023-02-03T15:12:49.799Z,5.35
2023-02-03T15:15:31.273Z,4.03
2023-02-03T15:18:00.833Z,4.65
2023-02-03T15:20:41.339Z,4.40
2023-02-03T15:23:20.058Z,4.38
2023-02-03T15:25:52.709Z,4.70
2023-02-03T15:28:21.569Z,4.72
2023-02-03T15:30:58.247Z,4.57
2023-02-03T15:33:25.156Z,4.43
2023-02-03T15:35:59.553Z,4.57
2023-02-03T15:38:52.536Z,4.55
2023-02-03T15:41:24.554Z,4.57
2023-02-03T15:43:58.646Z,4.57
2023-02-03T15:46:40.832Z,4.75
2023-02-03T15:49:19.156Z,5.28
2023-02-03T15:51:53.641Z,5.13
2023-02-03T15:54:40.754Z,5.10
2023-02-03T15:57:11.497Z,5.20
2023-02-03T15:59:42.445Z,4.05
2023-02-03T16:02:19.347Z,5.15
2023-02-03T16:04:46.155Z,5.30
2023-02-03T16:07:22.624Z,4.78
2023-02-03T16:09:56.429Z,5.50
2023-02-03T16:12:25.336Z,4.45
2023-02-03T16:14:53.185Z,5.15
2023-02-03T16:17:51.713Z,4.72
2023-02-03T16:20:22.753Z,4.45
2023-02-03T16:23:07.427Z,5.20
2023-02-03T16:25:35.139Z,4.30
2023-02-03T16:28:35.003Z,4.57
2023-02-03T16:31:40.420Z,4.07
2023-02-03T16:34:33.600Z,4.40
2023-02-03T16:37:18.877Z,4.55
2023-02-03T16:40:04.199Z,3.95
2023-02-03T16:42:59.031Z,4.68
2023-02-03T16:45:44.171Z,4.53
2023-02-03T16:48:30.446Z,4.60
2023-02-03T16:51:01.934Z,4.03
2023-02-03T16:53:30.624Z,4.53
2023-02-03T16:56:00.235Z,4.75
2023-02-03T16:58:27.380Z,4.05
2023-02-03T17:00:54.420Z,4.03
2023-02-03T17:03:25.713Z,4.85
2023-02-03T17:05:52.253Z,4.95
2023-02-03T17:08:21.957Z,5.05
2023-02-03T17:10:49.321Z,4.45
2023-02-03T17:13:17.464Z,4.30
2023-02-03T17:15:46.569Z,4.30
2023-02-03T17:18:17.253Z,3.35
2023-02-03T17:20:45.178Z,4.55
2023-02-03T17:23:13.229Z,5.50
2023-02-03T17:25:40.209Z,3.95
2023-02-03T17:28:08.279Z,4.18
2023-02-03T17:30:35.529Z,4.10
2023-02-03T17:33:03.298Z,4.30
2023-02-03T17:35:30.119Z,4.40
2023-02-03T17:37:56.809Z,4.72
2023-02-03T17:54:11.308Z,3.55
2023-02-03T17:56:37.836Z,3.40
2023-02-03T17:59:05.851Z,3.92
2023-02-03T18:01:32.500Z,4.00
2023-02-03T18:04:01.819Z,4.13
2023-02-03T18:06:30.133Z,3.08
2023-02-03T18:09:01.875Z,4.13
2023-02-03T18:11:30.240Z,3.55
2023-02-03T18:13:57.057Z,4.30
2023-02-03T18:16:26.426Z,3.53
2023-02-03T18:18:53.755Z,3.83
2023-02-03T18:21:21.689Z,3.70
2023-02-03T18:23:49.436Z,3.97
2023-02-03T18:26:15.953Z,3.50
2023-02-03T18:28:42.465Z,3.22
2023-02-03T18:31:12.060Z,3.55
2023-02-03T18:33:38.753Z,3.88
2023-02-03T18:36:06.477Z,4.10
2023-02-03T18:38:34.960Z,2.75
2023-02-03T18:41:08.299Z,3.58
2023-02-03T18:43:35.833Z,3.42
2023-02-03T18:46:12.998Z,3.65
2023-02-03T18:48:40.015Z,3.70
2023-02-03T18:51:11.268Z,4.15
2023-02-03T18:53:38.489Z,4.20
2023-02-03T18:56:15.368Z,4.25
2023-02-03T18:58:41.923Z,4.78
2023-02-03T19:01:08.402Z,4.82
2023-02-03T19:03:35.003Z,5.03
2023-02-03T19:06:01.587Z,4.50
2023-02-03T19:08:27.955Z,4.88
2023-02-03T19:10:54.769Z,4.55
2023-02-03T19:13:21.923Z,4.75
2023-02-03T19:15:49.113Z,3.88
2023-02-03T19:18:16.133Z,4.00
2023-02-03T19:20:43.789Z,4.65
2023-02-03T19:23:12.021Z,4.22
2023-02-03T19:25:39.245Z,5.07
2023-02-03T19:28:06.873Z,4.20
2023-02-03T19:30:35.197Z,4.47
2023-02-03T19:33:01.741Z,4.55
2023-02-03T19:35:28.103Z,5.20
2023-02-03T19:37:54.412Z,4.68
2023-02-03T19:40:20.723Z,4.00
2023-02-03T19:42:47.494Z,4.30
2023-02-03T19:45:13.805Z,4.57
2023-02-03T19:47:40.159Z,4.35
2023-02-03T19:50:06.648Z,4.53
2023-02-03T19:52:33.275Z,4.50
2023-02-03T19:54:59.613Z,4.68
2023-02-03T19:57:26.088Z,4.28
2023-02-03T19:59:52.461Z,4.75
2023-02-03T20:02:20.001Z,4.68
2023-02-03T20:04:46.436Z,5.63
2023-02-03T20:07:14.126Z,5.43
2023-02-03T20:09:40.567Z,5.25
2023-02-03T20:12:07.002Z,4.55
2023-02-03T20:14:33.826Z,5.22
2023-02-03T20:17:00.183Z,4.82
2023-02-03T20:19:26.572Z,4.63
2023-02-03T20:21:52.924Z,5.20
2023-02-03T20:24:19.409Z,4.35
2023-02-03T20:26:45.834Z,4.57
2023-02-03T20:29:12.178Z,4.57
2023-02-03T20:31:38.584Z,5.78
2023-02-03T20:34:05.061Z,4.65
2023-02-03T20:36:31.422Z,5.13
2023-02-03T20:38:57.765Z,5.20
2023-02-03T20:41:24.367Z,4.75
2023-02-03T20:43:50.788Z,4.28
2023-02-03T20:46:19.437Z,4.72
2023-02-03T20:48:46.145Z,4.90
2023-02-03T20:51:17.834Z,5.55
2023-02-03T20:53:44.477Z,4.63
2023-02-03T20:56:16.694Z,4.30
2023-02-03T20:58:44.180Z,5.22
2023-02-03T21:01:16.408Z,4.20
2023-02-03T21:04:01.480Z,6.45
2023-02-03T21:06:30.007Z,4.35
2023-02-03T21:09:07.626Z,4.32
2023-02-03T21:11:34.107Z,5.43
2023-02-03T21:14:02.290Z,4.88
2023-02-03T21:16:35.735Z,5.35
2023-02-03T21:19:03.162Z,4.50
2023-02-03T21:21:39.367Z,4.25
2023-02-03T21:24:28.861Z,4.93
2023-02-03T21:26:56.247Z,5.15
2023-02-03T21:29:36.748Z,5.07
2023-02-03T21:32:04.084Z,4.88
2023-02-03T21:34:34.914Z,3.92
2023-02-03T21:37:16.493Z,4.72
2023-02-03T21:39:42.841Z,4.60
2023-02-03T21:42:40.980Z,4.80
2023-02-03T21:45:19.750Z,5.45
2023-02-03T21:47:48.018Z,4.95
2023-02-03T21:50:30.789Z,4.80
2023-02-03T21:53:20.745Z,4.20
2023-02-03T21:55:47.124Z,5.15
2023-02-03T21:58:23.868Z,3.85
2023-02-03T22:00:52.534Z,5.10
2023-02-03T22:03:20.155Z,4.25
2023-02-03T22:05:47.109Z,4.05
2023-02-03T22:08:23.516Z,6.15
2023-02-03T22:10:50.247Z,5.70
2023-02-03T22:13:17.699Z,4.50
2023-02-03T22:15:44.245Z,4.95
2023-02-03T22:18:10.573Z,4.72
2023-02-03T22:20:36.941Z,4.10
2023-02-03T22:23:03.328Z,4.22
2023-02-03T22:25:29.707Z,4.97
2023-02-03T22:27:56.065Z,4.75
2023-02-03T22:30:22.395Z,4.55
2023-02-03T22:32:48.768Z,4.53
2023-02-03T22:35:15.153Z,4.32
2023-02-03T22:37:41.468Z,5.32
2023-02-03T22:40:09.577Z,4.53
2023-02-03T22:42:35.965Z,4.63
2023-02-03T22:45:02.272Z,5.20
2023-02-03T22:47:28.639Z,4.40
2023-02-03T22:49:54.971Z,5.00
2023-02-03T22:52:21.291Z,4.10
2023-02-03T22:54:47.661Z,4.78
2023-02-03T22:57:13.991Z,4.90
2023-02-03T23:00:18.673Z,4.75
2023-02-03T23:02:45.165Z,5.38
2023-02-03T23:05:11.637Z,5.03
2023-02-03T23:07:38.165Z,5.00
2023-02-03T23:10:06.782Z,4.47
2023-02-03T23:12:34.031Z,4.40
2023-02-03T23:15:01.260Z,4.90
2023-02-03T23:17:27.786Z,4.05
2023-02-03T23:19:54.386Z,4.00
2023-02-03T23:22:20.846Z,4.55
2023-02-03T23:24:47.271Z,5.22
2023-02-03T23:27:13.851Z,4.50
2023-02-03T23:29:41.308Z,4.65
2023-02-03T23:32:08.475Z,4.88
2023-02-03T23:34:53.176Z,4.30
2023-02-03T23:37:19.844Z,5.35
2023-02-03T23:39:46.428Z,4.90
2023-02-03T23:42:12.880Z,4.82
2023-02-03T23:44:39.426Z,4.32
2023-02-03T23:47:06.001Z,4.05
2023-02-03T23:49:32.471Z,5.15
2023-02-03T23:51:59.405Z,4.22
2023-02-03T23:54:26.202Z,4.55
2023-02-03T23:56:52.892Z,4.00
2023-02-03T23:59:19.781Z,4.82
